Oscoda, MI

6:02 PM EDT on September 21, 2019 (GMT -0400)
Oscoda-Wurtsmith

Weather History for KOSC - August, 2019

Change the Weather History Date:

Thursday, August 22, 2019

  Actual Average Record
Temperature  
Mean Temperature 60 °F -  
Max Temperature 72 °F 74 °F 87 °F (2007)
Min Temperature 49 °F 56 °F 42 °F (2004)
Degree Days  
Heating Degree Days 4    
Growing Degree Days 10 (Base 50)    
Moisture  
Dew Point 50 °F    
Average Humidity 70    
Maximum Humidity 100    
Minimum Humidity 42    
Precipitation  
Precipitation 0.00 in - - ()
Sea Level Pressure  
Sea Level Pressure 30.02 in    
Wind  
Wind Speed 5 mph (NNW)    
Max Wind Speed 14 mph    
Max Gust Speed 25 mph    
Visibility 10 miles    
Events      
Averages and records for this station are not official NWS values.
T = Trace of Precipitation, MM = Missing Value Source: NWS Daily Summary

Daily Weather History Graph

Daily Weather History Graph

Search for Another Location

Airport or City:

Astronomy

Aug. 22, 2019 Rise Set
Actual Time 6:44 AM EDT 8:27 PM EDT
Civil Twilight 6:13 AM EDT 8:58 PM EDT
Nautical Twilight 5:35 AM EDT 9:35 PM EDT
Astronomical Twilight 4:55 AM EDT 10:16 PM EDT
Moon No Moon Rise 1:34 PM EDT (8/22)
Length of Visible Light 14h 45m
Length of Day
13h 43m
Waning Gibbous, 60% of the Moon is Illuminated
Aug 22
Waning Gibbous
Aug 23
Last Quarter
Aug 30
New
Sep 5
First Quarter
Sep 14
Full

Hourly Weather History & Observations

Time (EDT) Temp. Dew Point Humidity Pressure Visibility Wind Dir Wind Speed Gust Speed Precip Events Conditions
12:15 AM 57.7 °F 50.9 °F 78% 29.96 in 10.0 mi Calm Calm - N/A   Clear
12:16 AM 57.6 °F 50.9 °F 78% 29.96 in 10.0 mi Calm Calm - N/A   Clear
12:35 AM 56.7 °F 50.5 °F 80% 29.96 in 10.0 mi Calm Calm - N/A   Clear
12:59 AM 54.9 °F 50.0 °F 84% 29.97 in 10.0 mi West 3.5 mph - N/A   Clear
1:17 AM 54.9 °F 50.2 °F 84% 29.96 in 10.0 mi West 3.5 mph - N/A   Clear
1:35 AM 53.2 °F 48.6 °F 84% 29.96 in 10.0 mi WNW 4.6 mph - N/A   Clear
1:36 AM 53.1 °F 48.4 °F 84% 29.96 in 10.0 mi WNW 4.6 mph - N/A   Clear
1:55 AM 54.9 °F 48.6 °F 79% 29.97 in 10.0 mi NW 5.8 mph - N/A   Clear
1:56 AM 54.9 °F 48.6 °F 79% 29.97 in 10.0 mi NW 5.8 mph - N/A   Clear
2:15 AM 54.0 °F 48.4 °F 81% 29.96 in 10.0 mi NW 4.6 mph - N/A   Clear
2:38 AM 53.4 °F 47.7 °F 81% 29.96 in 10.0 mi WNW 3.5 mph - N/A   Clear
2:56 AM 53.1 °F 47.3 °F 81% 29.96 in 10.0 mi WNW 4.6 mph - N/A   Clear
3:15 AM 52.7 °F 46.9 °F 81% 29.97 in 10.0 mi Calm Calm - N/A   Clear
3:16 AM 52.9 °F 46.9 °F 80% 29.97 in 10.0 mi Calm Calm - N/A   Clear
3:35 AM 52.0 °F 45.5 °F 79% 29.97 in 10.0 mi WSW 4.6 mph - N/A   Clear
3:59 AM 53.2 °F 45.9 °F 76% 29.98 in 10.0 mi West 6.9 mph - N/A   Clear
4:17 AM 53.2 °F 45.7 °F 76% 29.98 in 10.0 mi West 6.9 mph - N/A   Clear
4:35 AM 52.3 °F 45.5 °F 78% 29.98 in 10.0 mi West 3.5 mph - N/A   Clear
4:55 AM 51.1 °F 45.1 °F 80% 29.98 in 10.0 mi WNW 3.5 mph - N/A   Clear
5:15 AM 50.4 °F 45.0 °F 82% 29.98 in 10.0 mi WNW 4.6 mph - N/A   Clear
5:20 AM 50.2 °F 44.6 °F 81% 29.98 in 10.0 mi WNW 5.8 mph - N/A   Clear
5:38 AM 50.9 °F 45.7 °F 82% 29.98 in 10.0 mi WNW 6.9 mph - N/A   Clear
5:56 AM 50.5 °F 45.5 °F 83% 29.99 in 10.0 mi WNW 5.8 mph - N/A   Clear
6:15 AM 49.6 °F 44.8 °F 83% 29.99 in 10.0 mi WNW 4.6 mph - N/A   Clear
6:35 AM 49.8 °F 45.3 °F 84% 29.99 in 10.0 mi NW 5.8 mph - N/A   Clear
6:59 AM 50.0 °F 46.0 °F 86% 30.00 in 10.0 mi WNW 3.5 mph - N/A   Clear
7:17 AM 50.9 °F 46.4 °F 85% 30.00 in 10.0 mi WSW 3.5 mph - N/A   Clear
7:35 AM 52.5 °F 47.5 °F 83% 30.00 in 10.0 mi West 3.5 mph - N/A   Clear
7:55 AM 55.8 °F 49.1 °F 78% 30.01 in 10.0 mi WNW 3.5 mph - N/A   Clear
8:15 AM 57.0 °F 49.5 °F 76% 30.01 in 10.0 mi NNW 4.6 mph - N/A   Clear
8:38 AM 58.1 °F 50.0 °F 74% 30.01 in 10.0 mi NNW 5.8 mph - N/A   Clear
8:56 AM 59.5 °F 50.9 °F 73% 30.01 in 10.0 mi NW 8.1 mph - N/A   Clear
9:15 AM 60.8 °F 51.6 °F 72% 30.02 in 10.0 mi NW 10.4 mph - N/A   Clear
9:35 AM 61.9 °F 52.5 °F 71% 30.03 in 10.0 mi NNW 9.2 mph - N/A   Clear
9:59 AM 64.0 °F 53.4 °F 68% 30.02 in 10.0 mi NNW 6.9 mph - N/A   Clear
10:17 AM 64.6 °F 52.3 °F 64% 30.02 in 10.0 mi NNW 9.2 mph - N/A   Clear
10:35 AM 66.0 °F 51.8 °F 60% 30.02 in 10.0 mi NNW 11.5 mph - N/A   Clear
10:55 AM 66.7 °F 50.2 °F 55% 30.03 in 10.0 mi NNW 12.7 mph - N/A   Clear
10:56 AM 66.9 °F 50.4 °F 55% 30.03 in 10.0 mi NNW 12.7 mph - N/A   Clear
11:15 AM 67.6 °F 50.2 °F 54% 30.03 in 10.0 mi NNW 9.2 mph - N/A   Scattered Clouds
11:20 AM 67.8 °F 50.5 °F 54% 30.03 in 10.0 mi North 6.9 mph - N/A   Scattered Clouds
11:38 AM 68.4 °F 49.5 °F 51% 30.03 in 10.0 mi North 5.8 mph - N/A   Clear
11:56 AM 69.4 °F 50.2 °F 50% 30.03 in 10.0 mi NNW 13.8 mph 25.3 mph N/A   Scattered Clouds
12:15 PM 69.4 °F 49.8 °F 50% 30.04 in 10.0 mi North 11.5 mph - N/A   Scattered Clouds
12:16 PM 69.8 °F 49.8 °F 49% 30.04 in 10.0 mi North 10.4 mph - N/A   Scattered Clouds
12:35 PM 69.8 °F 48.6 °F 47% 30.04 in 10.0 mi North 10.4 mph - N/A   Mostly Cloudy
12:36 PM 69.3 °F 48.4 °F 47% 30.04 in 10.0 mi North 11.5 mph - N/A   Mostly Cloudy
12:59 PM 68.2 °F 48.4 °F 49% 30.04 in 10.0 mi NNW 9.2 mph - N/A   Mostly Cloudy
1:17 PM 69.8 °F 46.4 °F 43% 30.03 in 10.0 mi North 6.9 mph - N/A   Mostly Cloudy
1:35 PM 68.9 °F 47.3 °F 46% 30.04 in 10.0 mi NNW 6.9 mph - N/A   Mostly Cloudy
1:36 PM 69.3 °F 47.3 °F 45% 30.04 in 10.0 mi North 6.9 mph - N/A   Mostly Cloudy
1:55 PM 72.0 °F 47.8 °F 42% 30.03 in 10.0 mi WNW 9.2 mph - N/A   Mostly Cloudy
2:15 PM 72.0 °F 49.3 °F 45% 30.03 in 10.0 mi North 11.5 mph - N/A   Mostly Cloudy
2:38 PM 71.2 °F 48.0 °F 44% 30.04 in 10.0 mi NNW 6.9 mph - N/A   Overcast
2:56 PM 70.0 °F 48.0 °F 46% 30.04 in 10.0 mi NNW 3.5 mph - N/A   Overcast
3:15 PM 70.0 °F 47.5 °F 45% 30.04 in 10.0 mi North 8.1 mph - N/A   Overcast
3:35 PM 68.4 °F 51.3 °F 54% 30.04 in 10.0 mi NE 9.2 mph - N/A   Overcast
3:36 PM 68.4 °F 51.4 °F 55% 30.05 in 10.0 mi NE 9.2 mph - N/A   Overcast
3:59 PM 67.3 °F 53.1 °F 60% 30.04 in 10.0 mi NE 12.7 mph - N/A   Overcast
4:17 PM 66.7 °F 51.8 °F 59% 30.04 in 10.0 mi NE 11.5 mph - N/A   Overcast
4:35 PM 67.1 °F 52.2 °F 59% 30.04 in 10.0 mi NE 11.5 mph - N/A   Overcast
4:55 PM 66.4 °F 52.2 °F 60% 30.04 in 10.0 mi ENE 11.5 mph - N/A   Overcast
4:56 PM 66.4 °F 52.0 °F 60% 30.04 in 10.0 mi NE 10.4 mph - N/A   Overcast
5:15 PM 66.4 °F 52.9 °F 62% 30.03 in 10.0 mi NE 8.1 mph - N/A   Mostly Cloudy
5:20 PM 66.6 °F 52.7 °F 61% 30.04 in 10.0 mi NE 10.4 mph - N/A   Mostly Cloudy
5:38 PM 65.8 °F 52.3 °F 62% 30.03 in 10.0 mi NE 6.9 mph - N/A   Mostly Cloudy
5:56 PM 68.4 °F 52.2 °F 56% 30.04 in 10.0 mi ENE 9.2 mph - N/A   Scattered Clouds
6:15 PM 65.8 °F 51.8 °F 60% 30.03 in 10.0 mi NE 9.2 mph - N/A   Scattered Clouds
6:16 PM 65.8 °F 51.8 °F 60% 30.03 in 10.0 mi NE 9.2 mph - N/A   Mostly Cloudy
6:35 PM 68.0 °F 51.8 °F 56% 30.04 in 10.0 mi NE 8.1 mph - N/A   Scattered Clouds
6:59 PM 66.6 °F 51.1 °F 57% 30.04 in 10.0 mi NE 5.8 mph - N/A   Mostly Cloudy
7:17 PM 65.8 °F 51.3 °F 59% 30.03 in 10.0 mi NE 3.5 mph - N/A   Overcast
7:35 PM 64.8 °F 51.8 °F 63% 30.04 in 10.0 mi Calm Calm - N/A   Scattered Clouds
7:36 PM 64.9 °F 51.8 °F 62% 30.04 in 10.0 mi Calm Calm - N/A   Scattered Clouds
7:55 PM 64.9 °F 52.2 °F 63% 30.04 in 10.0 mi Calm Calm - N/A   Clear
8:15 PM 61.0 °F 52.7 °F 74% 30.05 in 10.0 mi West 4.6 mph - N/A   Clear
8:38 PM 57.7 °F 52.2 °F 82% 30.05 in 10.0 mi WSW 3.5 mph - N/A   Clear
8:56 PM 57.0 °F 51.6 °F 82% 30.06 in 10.0 mi WSW 3.5 mph - N/A   Clear
9:15 PM 58.1 °F 53.4 °F 84% 30.07 in 10.0 mi Calm Calm - N/A   Clear
9:16 PM 58.1 °F 53.4 °F 84% 30.07 in 10.0 mi Calm Calm - N/A   Clear
9:35 PM 57.4 °F 53.6 °F 87% 30.07 in 10.0 mi Calm Calm - N/A   Clear
9:36 PM 57.6 °F 53.6 °F 87% 30.07 in 10.0 mi Calm Calm - N/A   Clear
9:59 PM 57.2 °F 53.2 °F 87% 30.08 in 10.0 mi Calm Calm - N/A   Clear
10:17 PM 55.4 °F 54.0 °F 95% 30.08 in 10.0 mi Calm Calm - N/A   Clear
10:35 PM 54.3 °F 54.1 °F 99% 30.08 in - Calm Calm - N/A   Unknown
10:55 PM 54.3 °F 52.7 °F 94% 30.09 in 10.0 mi Calm Calm - N/A   Clear
10:56 PM 54.3 °F 52.5 °F 94% 30.09 in 10.0 mi Calm Calm - N/A   Clear
11:15 PM 52.7 °F 52.7 °F 100% 30.09 in 10.0 mi Calm Calm - N/A   Clear
11:38 PM 52.5 °F 52.2 °F 99% 30.09 in - Calm Calm - N/A   Unknown
11:56 PM 53.2 °F 50.0 °F 89% 30.10 in 10.0 mi Calm Calm - N/A   Clear